Time;durP1;ratioP1;P1;durP2;ratioP2;P2;SDS_P1;SDS_P2;PMS_P1;PMS_P2;Temp;Humidity;BMP_temperature;BMP_pressure;BME280_temperature;BME280_humidity;BME280_pressure;Samples;Min_cycle;Max_cycle;Signal;HPM_P1;HPM_P2
2021/10/02 00:35:31;;;;;;;2.78;1.37;;;17.80;60.20;;;;;;2344139;55;20953;-67
2021/10/02 00:38:11;;;;;;;3.28;1.60;;;17.90;60.30;;;;;;2324602;54;20982;-67
2021/10/02 00:49:55;;;;;;;2.58;1.10;;;17.80;60.30;;;;;;2573225;53;20931;-66
2021/10/02 00:52:21;;;;;;;3.00;1.40;;;17.80;60.10;;;;;;2335976;54;21015;-69
2021/10/02 00:54:48;;;;;;;3.10;1.58;;;17.90;60.40;;;;;;2334610;54;20948;-68
2021/10/02 00:57:14;;;;;;;3.25;1.73;;;17.90;60.50;;;;;;2333845;54;20912;-65
2021/10/02 00:59:41;;;;;;;3.62;1.83;;;17.80;60.50;;;;;;2334865;54;20999;-66
2021/10/02 01:02:23;;;;;;;3.83;1.73;;;17.80;60.60;;;;;;2331368;54;21058;-69
2021/10/02 01:05:29;;;;;;;3.10;1.62;;;17.80;60.70;;;;;;2591122;53;20935;-67
2021/10/02 01:08:34;;;;;;;3.33;1.40;;;17.80;60.70;;;;;;2346779;53;20908;-68
2021/10/02 01:12:41;;;;;;;3.37;1.70;;;17.80;60.70;;;;;;2344033;55;21850;-66
2021/10/02 01:15:10;;;;;;;3.58;1.60;;;17.80;60.50;;;;;;2332789;54;20983;-69
2021/10/02 01:17:45;;;;;;;3.90;2.03;;;17.90;60.70;;;;;;2315035;55;21075;-66
2021/10/02 01:22:50;;;;;;;4.37;1.80;;;17.80;60.70;;;;;;2323057;55;20952;-67
2021/10/02 01:27:26;;;;;;;3.70;1.60;;;17.80;60.70;;;;;;2329536;54;20971;-69
2021/10/02 01:29:52;;;;;;;2.67;1.15;;;17.90;60.70;;;;;;2331610;54;21110;-67
2021/10/02 01:32:30;;;;;;;4.18;1.60;;;17.90;60.60;;;;;;2321630;54;21807;-69
2021/10/02 01:47:09;;;;;;;4.15;1.42;;;17.90;61.00;;;;;;2577490;53;22167;-67
2021/10/02 01:49:35;;;;;;;2.40;1.10;;;17.90;60.90;;;;;;2343770;55;21718;-68
2021/10/02 01:52:02;;;;;;;2.53;1.12;;;17.90;60.70;;;;;;2343323;55;21438;-66
2021/10/02 01:54:28;;;;;;;4.43;2.12;;;17.90;60.80;;;;;;2425747;53;20991;-67
2021/10/02 01:56:54;;;;;;;4.00;1.70;;;17.90;60.90;;;;;;2338498;54;21003;-68
2021/10/02 01:59:23;;;;;;;3.17;1.73;;;17.90;61.00;;;;;;2514756;53;21042;-66
2021/10/02 02:01:50;;;;;;;3.80;1.80;;;17.90;61.10;;;;;;2327942;53;21949;-66
2021/10/02 02:04:16;;;;;;;3.30;1.60;;;17.90;61.20;;;;;;2344394;55;20939;-67
2021/10/02 02:06:43;;;;;;;4.10;1.55;;;17.90;61.20;;;;;;2344288;55;21927;-68
2021/10/02 02:09:12;;;;;;;3.12;1.62;;;18.00;61.30;;;;;;2342618;55;21415;-68
2021/10/02 02:11:38;;;;;;;3.05;1.50;;;18.00;61.30;;;;;;2344757;55;20975;-70
2021/10/02 02:14:04;;;;;;;3.78;1.60;;;18.00;61.30;;;;;;2343526;54;21003;-65
2021/10/02 02:16:31;;;;;;;3.05;1.62;;;18.00;61.30;;;;;;2333182;54;20998;-68
2021/10/02 02:19:02;;;;;;;3.70;1.80;;;18.00;61.40;;;;;;2333615;54;20995;-67
2021/10/02 02:21:28;;;;;;;3.83;1.75;;;18.00;61.40;;;;;;2341076;54;21102;-66
2021/10/02 02:23:55;;;;;;;3.97;1.65;;;18.00;61.40;;;;;;2327267;54;21535;-67
2021/10/02 02:26:21;;;;;;;3.92;1.70;;;18.00;61.40;;;;;;2344426;55;20927;-69
2021/10/02 02:28:47;;;;;;;3.00;1.40;;;18.00;61.30;;;;;;2342555;54;20952;-67
2021/10/02 02:31:14;;;;;;;3.45;1.50;;;18.00;61.30;;;;;;2384079;53;20959;-65
2021/10/02 02:33:41;;;;;;;3.53;1.70;;;18.00;61.20;;;;;;2330883;54;20968;-67
2021/10/02 02:36:07;;;;;;;3.85;1.50;;;18.00;61.20;;;;;;2391495;52;22206;-67
2021/10/02 02:38:33;;;;;;;3.03;1.50;;;18.00;61.20;;;;;;2322462;54;21006;-66
2021/10/02 02:41:01;;;;;;;3.10;1.60;;;18.00;61.10;;;;;;2332531;54;20998;-67
2021/10/02 02:43:32;;;;;;;4.07;1.40;;;18.00;61.20;;;;;;2323023;54;21055;-67
2021/10/02 02:46:55;;;;;;;3.25;1.48;;;18.00;61.20;;;;;;2323010;54;21018;-68
2021/10/02 02:49:27;;;;;;;2.97;1.65;;;18.00;61.20;;;;;;2326394;54;21899;-65
2021/10/02 02:52:05;;;;;;;;;;;18.00;61.20;;;;;;2334938;54;20928;-67
2021/10/02 02:54:43;;;;;;;2.40;1.10;;;18.00;61.10;;;;;;2344111;54;20106;-68
2021/10/02 02:57:26;;;;;;;2.67;1.20;;;18.00;61.00;;;;;;2556244;53;21039;-66
2021/10/02 03:00:05;;;;;;;3.17;1.67;;;17.90;61.00;;;;;;2334738;54;21052;-66
2021/10/02 03:02:36;;;;;;;4.22;1.52;;;17.90;61.10;;;;;;2343869;54;21995;-71
2021/10/02 03:05:05;;;;;;;3.45;1.85;;;17.90;61.20;;;;;;2343190;55;21023;-70
2021/10/02 03:07:34;;;;;;;3.42;1.70;;;17.90;61.30;;;;;;2343972;55;20944;-69
2021/10/02 03:10:00;;;;;;;5.03;2.55;;;17.80;61.20;;;;;;2344184;55;20908;-66
2021/10/02 03:12:36;;;;;;;3.53;1.90;;;17.80;61.20;;;;;;2589528;53;20987;-66
2021/10/02 03:15:03;;;;;;;4.45;1.85;;;17.80;61.20;;;;;;2564468;52;20995;-69
2021/10/02 03:17:29;;;;;;;3.33;1.75;;;17.80;61.10;;;;;;2583747;52;21470;-65
2021/10/02 03:19:56;;;;;;;3.33;1.90;;;17.70;61.00;;;;;;2591009;53;20951;-68
2021/10/02 03:22:25;;;;;;;3.42;1.70;;;17.70;61.00;;;;;;2400789;53;20973;-65
2021/10/02 03:24:51;;;;;;;3.53;1.87;;;17.70;61.10;;;;;;2322964;54;21015;-69
2021/10/02 03:27:17;;;;;;;4.20;2.05;;;17.70;61.10;;;;;;2343598;55;20944;-65
2021/10/02 03:29:44;;;;;;;4.25;1.90;;;17.60;61.00;;;;;;2324111;54;21014;-68
2021/10/02 03:32:10;;;;;;;3.67;1.70;;;17.60;61.00;;;;;;2490556;53;20991;-65
2021/10/02 03:34:37;;;;;;;3.83;1.77;;;17.60;61.00;;;;;;2323755;54;20978;-65
2021/10/02 03:37:03;;;;;;;3.30;1.80;;;17.50;60.90;;;;;;2577574;53;20931;-66
2021/10/02 03:39:30;;;;;;;3.15;1.70;;;17.50;61.00;;;;;;2306121;55;20943;-67
2021/10/02 03:42:10;;;;;;;3.37;1.90;;;17.50;61.00;;;;;;2571664;53;21022;-66
2021/10/02 03:44:41;;;;;;;3.47;1.77;;;17.50;61.10;;;;;;2341083;54;21696;-68
2021/10/02 03:47:08;;;;;;;3.50;1.90;;;17.40;61.00;;;;;;2590861;53;20963;-67
2021/10/02 03:49:37;;;;;;;3.35;1.70;;;17.40;61.00;;;;;;2453035;53;21026;-65
2021/10/02 03:52:04;;;;;;;2.70;1.45;;;17.40;61.10;;;;;;2325537;54;20962;-67
2021/10/02 03:54:31;;;;;;;4.70;1.75;;;17.30;61.10;;;;;;2323105;54;21031;-68
2021/10/02 03:56:57;;;;;;;3.65;1.75;;;17.30;61.20;;;;;;2581051;53;21113;-67
2021/10/02 03:59:24;;;;;;;3.80;1.80;;;17.30;61.30;;;;;;2319354;54;21021;-70
2021/10/02 04:01:50;;;;;;;4.57;2.15;;;17.20;61.30;;;;;;2577480;53;21432;-66
2021/10/02 04:04:17;;;;;;;4.87;2.25;;;17.20;61.40;;;;;;2320196;54;21054;-67
2021/10/02 04:06:46;;;;;;;3.00;1.60;;;17.20;61.50;;;;;;2584711;52;20994;-68
2021/10/02 04:09:13;;;;;;;3.70;1.67;;;17.20;61.50;;;;;;2322015;54;20936;-67
2021/10/02 04:11:39;;;;;;;3.58;1.87;;;17.20;61.50;;;;;;2341862;54;21531;-67
2021/10/02 04:14:05;;;;;;;4.20;2.22;;;17.10;61.50;;;;;;2327231;54;20944;-69
2021/10/02 04:16:33;;;;;;;4.12;2.40;;;17.10;61.50;;;;;;2344171;54;20947;-67
2021/10/02 04:19:02;;;;;;;4.03;2.20;;;17.10;61.50;;;;;;2344442;55;20946;-66
2021/10/02 04:21:28;;;;;;;3.90;1.98;;;17.10;61.50;;;;;;2590956;53;20923;-67
2021/10/02 04:23:55;;;;;;;4.32;1.85;;;17.10;61.50;;;;;;2343511;55;20963;-65
2021/10/02 04:26:22;;;;;;;3.05;1.60;;;17.00;61.40;;;;;;2343819;55;20963;-65
2021/10/02 04:28:50;;;;;;;2.87;1.52;;;17.00;61.40;;;;;;2329295;54;20978;-68
2021/10/02 04:31:16;;;;;;;2.90;1.40;;;17.00;61.50;;;;;;2409070;53;21010;-67
2021/10/02 04:33:44;;;;;;;2.90;1.20;;;17.00;62.30;;;;;;2328908;53;20948;-66
2021/10/02 04:36:11;;;;;;;2.97;1.40;;;17.00;61.60;;;;;;2332579;54;21025;-68
2021/10/02 04:38:37;;;;;;;4.05;1.73;;;17.00;61.60;;;;;;2337594;54;21023;-66
2021/10/02 04:41:04;;;;;;;3.08;1.45;;;17.00;61.70;;;;;;2343618;54;20932;-66
2021/10/02 04:43:33;;;;;;;4.15;2.03;;;17.00;61.70;;;;;;2343770;55;20971;-66
2021/10/02 04:46:00;;;;;;;4.00;2.05;;;17.00;61.70;;;;;;2566105;53;21054;-67
2021/10/02 04:48:27;;;;;;;2.70;1.60;;;17.00;61.70;;;;;;2451486;53;20975;-68
2021/10/02 04:50:55;;;;;;;3.67;1.40;;;17.00;61.70;;;;;;2345660;54;20971;-68
2021/10/02 04:53:21;;;;;;;3.83;1.50;;;17.00;61.70;;;;;;2329751;54;20957;-67
2021/10/02 04:55:48;;;;;;;3.33;1.60;;;17.00;61.70;;;;;;2354805;53;1357610;-66
2021/10/02 04:58:14;;;;;;;3.10;1.50;;;17.00;61.60;;;;;;2343985;55;20908;-65
2021/10/02 05:00:40;;;;;;;2.87;1.37;;;17.00;61.60;;;;;;2331934;54;20993;-66
2021/10/02 05:03:09;;;;;;;2.55;1.40;;;17.00;61.50;;;;;;2337307;54;20932;-69
2021/10/02 05:05:36;;;;;;;3.28;1.40;;;17.00;61.50;;;;;;2566338;52;21510;-66
2021/10/02 05:08:02;;;;;;;3.37;1.65;;;17.00;61.50;;;;;;2323670;54;20935;-68
2021/10/02 05:10:28;;;;;;;3.00;1.23;;;16.90;61.40;;;;;;2339193;54;20942;-70
2021/10/02 05:12:55;;;;;;;2.80;1.27;;;17.00;61.40;;;;;;2321491;54;20943;-68
2021/10/02 05:15:21;;;;;;;3.28;1.37;;;16.90;61.20;;;;;;2343614;55;21026;-65
2021/10/02 05:17:48;;;;;;;2.47;1.15;;;16.90;61.10;;;;;;2343853;55;20956;-67
2021/10/02 05:20:14;;;;;;;2.30;1.00;;;16.90;61.00;;;;;;2344460;55;20928;-65
2021/10/02 05:22:40;;;;;;;2.67;1.30;;;16.90;61.00;;;;;;2590364;53;21857;-70
2021/10/02 05:25:07;;;;;;;2.87;1.40;;;16.90;61.00;;;;;;2342310;55;20939;-67
2021/10/02 05:27:33;;;;;;;2.97;1.35;;;16.80;60.80;;;;;;2343725;54;20979;-67
2021/10/02 05:30:01;;;;;;;3.33;1.20;;;16.80;60.80;;;;;;2343913;55;20966;-65
2021/10/02 05:32:27;;;;;;;3.17;1.10;;;16.80;60.80;;;;;;2341475;54;21027;-66
2021/10/02 05:34:53;;;;;;;2.90;1.40;;;16.70;60.70;;;;;;2571164;53;20915;-68
2021/10/02 05:37:20;;;;;;;2.83;1.27;;;16.70;60.70;;;;;;2558370;52;20967;-68
2021/10/02 05:39:47;;;;;;;3.10;1.48;;;16.60;60.60;;;;;;2342792;54;20923;-69
2021/10/02 05:42:14;;;;;;;4.03;1.60;;;16.60;60.70;;;;;;2344779;55;21003;-66
2021/10/02 05:44:41;;;;;;;3.35;1.80;;;16.60;60.70;;;;;;2343859;54;21072;-65
2021/10/02 05:47:07;;;;;;;3.90;2.20;;;16.50;60.70;;;;;;2343112;54;20916;-66
2021/10/02 05:49:34;;;;;;;2.60;1.20;;;16.40;60.60;;;;;;2343917;54;20979;-65
2021/10/02 05:52:00;;;;;;;4.70;1.48;;;16.40;60.60;;;;;;2344177;55;20983;-67
2021/10/02 05:54:29;;;;;;;3.33;1.55;;;16.30;60.50;;;;;;2330301;54;20963;-66
2021/10/02 05:56:56;;;;;;;3.90;1.75;;;16.30;60.70;;;;;;2339518;54;20939;-67
2021/10/02 05:59:22;;;;;;;2.78;1.30;;;16.20;60.70;;;;;;2344099;55;21670;-66
2021/10/02 06:01:49;;;;;;;2.62;1.42;;;16.20;60.80;;;;;;2344069;55;20924;-66
2021/10/02 06:04:15;;;;;;;3.87;1.30;;;16.10;60.80;;;;;;2343925;55;21019;-66
2021/10/02 06:06:44;;;;;;;2.95;1.50;;;16.10;60.80;;;;;;2590754;53;20960;-66
2021/10/02 06:09:10;;;;;;;3.03;1.37;;;16.10;60.90;;;;;;2338678;54;20975;-66
2021/10/02 06:11:40;;;;;;;4.35;1.87;;;16.00;60.90;;;;;;2329868;54;20963;-65
2021/10/02 06:14:06;;;;;;;2.22;1.15;;;16.00;61.10;;;;;;2335634;54;21459;-69
2021/10/02 06:16:34;;;;;;;3.85;1.40;;;16.00;61.10;;;;;;2330807;54;20935;-67
2021/10/02 06:19:01;;;;;;;3.85;1.40;;;16.00;61.20;;;;;;2343746;55;21476;-68
2021/10/02 06:21:27;;;;;;;3.62;1.23;;;16.00;61.20;;;;;;2523363;52;21919;-67
2021/10/02 06:23:58;;;;;;;2.67;1.02;;;16.00;61.30;;;;;;2332028;54;20967;-65
2021/10/02 06:26:25;;;;;;;3.15;1.10;;;16.00;61.40;;;;;;2341927;55;20995;-67
2021/10/02 06:28:52;;;;;;;4.22;0.90;;;16.00;61.40;;;;;;2327272;53;21573;-67
2021/10/02 06:31:19;;;;;;;4.00;1.00;;;16.10;61.60;;;;;;2394886;53;21651;-70
2021/10/02 06:33:45;;;;;;;1.90;0.80;;;16.10;61.60;;;;;;2335570;54;21029;-68
2021/10/02 06:36:12;;;;;;;2.53;0.85;;;16.20;61.70;;;;;;2589736;53;21392;-65
2021/10/02 06:38:39;;;;;;;3.83;1.00;;;16.20;61.70;;;;;;2342222;54;20944;-66
2021/10/02 06:41:06;;;;;;;2.95;0.85;;;16.30;61.90;;;;;;2589510;53;21010;-66
2021/10/02 06:43:32;;;;;;;3.10;1.23;;;16.30;61.80;;;;;;2343869;55;21006;-68
2021/10/02 06:46:00;;;;;;;5.93;3.12;;;16.40;61.80;;;;;;2590354;53;20936;-67
2021/10/02 06:48:26;;;;;;;7.80;4.40;;;16.40;61.70;;;;;;2342132;55;21479;-69
2021/10/02 06:50:53;;;;;;;11.70;4.57;;;16.50;61.70;;;;;;2463280;53;21012;-68
2021/10/02 06:53:19;;;;;;;9.35;5.25;;;16.50;61.60;;;;;;2342711;55;21019;-67
2021/10/02 06:55:45;;;;;;;10.68;5.60;;;16.50;61.60;;;;;;2341766;55;21072;-66
2021/10/02 06:58:12;;;;;;;8.27;4.37;;;16.60;61.70;;;;;;2340634;55;20991;-67
2021/10/02 07:00:39;;;;;;;7.07;4.00;;;16.60;61.70;;;;;;2482020;53;20939;-67
2021/10/02 07:03:05;;;;;;;6.20;3.17;;;16.60;61.70;;;;;;2322148;54;20944;-65
2021/10/02 07:05:32;;;;;;;5.95;2.72;;;16.70;61.90;;;;;;2555853;52;20975;-68
2021/10/02 07:08:00;;;;;;;5.80;2.75;;;16.70;62.00;;;;;;2339863;54;20955;-68
2021/10/02 07:10:30;;;;;;;5.87;2.78;;;16.80;62.10;;;;;;2324541;54;21020;-66
2021/10/02 07:12:56;;;;;;;4.95;2.75;;;16.80;62.10;;;;;;2342555;55;21050;-66
2021/10/02 07:15:24;;;;;;;4.72;2.10;;;16.80;62.10;;;;;;2343770;55;21015;-67
2021/10/02 07:17:50;;;;;;;5.00;2.62;;;16.90;62.20;;;;;;2338423;54;21496;-70
2021/10/02 07:20:22;;;;;;;4.60;2.30;;;16.90;62.30;;;;;;2414654;53;20927;-66
2021/10/02 07:22:48;;;;;;;3.75;1.75;;;17.00;62.30;;;;;;2337445;54;21032;-67
2021/10/02 07:25:15;;;;;;;3.92;1.73;;;17.00;62.20;;;;;;2319518;54;21041;-67
2021/10/02 07:27:42;;;;;;;5.60;1.92;;;17.10;62.30;;;;;;2339427;54;21071;-68
2021/10/02 07:30:10;;;;;;;3.33;1.70;;;17.10;62.20;;;;;;2568500;53;21515;-67
2021/10/02 07:32:37;;;;;;;3.92;1.50;;;17.20;62.30;;;;;;2344454;55;21067;-65
2021/10/02 07:35:04;;;;;;;2.92;1.40;;;17.20;62.30;;;;;;2342020;55;20904;-66
2021/10/02 07:37:30;;;;;;;4.55;1.50;;;17.30;62.40;;;;;;2341783;55;21015;-67
2021/10/02 07:39:56;;;;;;;3.08;1.40;;;17.30;62.30;;;;;;2450986;53;21063;-69
2021/10/02 07:42:23;;;;;;;4.43;1.77;;;17.40;62.30;;;;;;2341248;55;21007;-66
2021/10/02 07:44:57;;;;;;;4.03;1.73;;;17.50;62.30;;;;;;2354897;53;21820;-68
2021/10/02 07:47:24;;;;;;;4.00;1.87;;;17.50;62.20;;;;;;2325695;54;21067;-67
2021/10/02 07:49:50;;;;;;;6.05;1.80;;;17.60;62.30;;;;;;2506850;53;21087;-65
2021/10/02 07:52:18;;;;;;;4.15;1.90;;;17.60;62.20;;;;;;2587675;53;20939;-67
2021/10/02 07:54:44;;;;;;;3.20;1.65;;;17.60;62.30;;;;;;2385476;53;20935;-66
2021/10/02 07:57:13;;;;;;;3.25;1.20;;;17.70;62.30;;;;;;2337050;54;21452;-66
2021/10/02 07:59:40;;;;;;;3.05;1.60;;;17.80;62.50;;;;;;2407421;54;20948;-66
2021/10/02 08:02:07;;;;;;;3.10;1.40;;;17.80;62.50;;;;;;2343782;55;20934;-66
2021/10/02 08:04:34;;;;;;;5.60;1.67;;;17.90;62.60;;;;;;2557678;52;20943;-68
2021/10/02 08:07:01;;;;;;;2.80;1.40;;;17.90;62.70;;;;;;2336117;54;20979;-67
2021/10/02 08:09:27;;;;;;;3.53;1.33;;;18.00;62.80;;;;;;2336832;54;20978;-66
2021/10/02 08:11:54;;;;;;;4.95;1.67;;;18.10;62.80;;;;;;2329095;54;21349;-67
2021/10/02 08:14:20;;;;;;;3.05;1.35;;;18.20;62.90;;;;;;2535980;53;21071;-68
2021/10/02 08:16:48;;;;;;;3.67;1.42;;;18.30;63.00;;;;;;2321718;54;20989;-66
2021/10/02 08:19:16;;;;;;;3.12;1.50;;;18.40;63.00;;;;;;2417338;53;21753;-67
2021/10/02 08:21:42;;;;;;;3.97;1.55;;;18.50;62.80;;;;;;2344319;55;21816;-68
2021/10/02 08:24:25;;;;;;;3.05;1.37;;;18.60;62.70;;;;;;2342647;55;20958;-69
2021/10/02 08:26:52;;;;;;;3.58;1.30;;;18.80;62.00;;;;;;2328290;54;21468;-70
2021/10/02 08:29:27;;;;;;;3.10;1.30;;;18.90;62.50;;;;;;2341531;54;20963;-69
2021/10/02 08:31:55;;;;;;;3.83;1.40;;;19.10;62.50;;;;;;2319927;54;21055;-66
2021/10/02 08:34:23;;;;;;;5.43;1.73;;;19.30;62.20;;;;;;2412887;53;21050;-68
2021/10/02 08:36:49;;;;;;;3.17;1.20;;;19.40;61.50;;;;;;2320776;54;20954;-68
2021/10/02 08:39:17;;;;;;;4.00;1.50;;;19.50;61.20;;;;;;2430436;53;21086;-67
2021/10/02 08:41:43;;;;;;;3.22;1.30;;;19.70;60.90;;;;;;2568868;53;20939;-67
2021/10/02 08:44:10;;;;;;;3.58;1.33;;;19.80;60.80;;;;;;2404270;53;20930;-73
2021/10/02 08:46:37;;;;;;;3.15;1.27;;;19.90;60.60;;;;;;2320102;54;21114;-67
2021/10/02 08:49:50;;;;;;;5.00;1.17;;;20.10;61.30;;;;;;2571917;52;20943;-66
2021/10/02 08:52:17;;;;;;;2.90;1.20;;;20.20;59.30;;;;;;2332432;54;20948;-68
2021/10/02 08:54:49;;;;;;;2.25;1.00;;;20.40;60.00;;;;;;2342838;55;20993;-69
2021/10/02 08:57:22;;;;;;;2.20;0.90;;;20.50;59.80;;;;;;2319053;54;20935;-68
2021/10/02 08:59:50;;;;;;;3.00;1.20;;;20.60;59.40;;;;;;2320374;54;21014;-67
2021/10/02 09:02:18;;;;;;;2.37;1.00;;;20.70;59.70;;;;;;2324588;54;21002;-67
2021/10/02 09:04:45;;;;;;;2.60;1.02;;;20.80;59.80;;;;;;2341538;55;20988;-69
2021/10/02 09:07:12;;;;;;;5.18;1.30;;;20.90;59.90;;;;;;2342087;55;20986;-68
2021/10/02 09:09:38;;;;;;;5.60;1.50;;;21.00;59.50;;;;;;2342335;55;20939;-66
2021/10/02 09:12:06;;;;;;;3.28;1.27;;;21.20;59.00;;;;;;2341812;55;20931;-70
2021/10/02 09:14:35;;;;;;;2.42;1.08;;;21.30;59.00;;;;;;2522945;53;20926;-70
2021/10/02 09:17:01;;;;;;;2.15;1.10;;;21.40;58.70;;;;;;2340916;55;20940;-70
2021/10/02 09:19:28;;;;;;;4.40;1.98;;;21.50;58.40;;;;;;2340764;55;21003;-68
2021/10/02 09:21:57;;;;;;;3.05;1.00;;;21.70;58.00;;;;;;2323009;54;21058;-68
2021/10/02 09:24:25;;;;;;;3.10;1.08;;;21.70;57.50;;;;;;2588371;53;21046;-69
2021/10/02 09:26:52;;;;;;;2.40;1.00;;;21.80;57.10;;;;;;2323687;54;20934;-67
2021/10/02 09:29:34;;;;;;;2.10;0.90;;;21.90;56.80;;;;;;2323094;54;20977;-69
2021/10/02 09:32:01;;;;;;;3.00;1.17;;;22.00;55.70;;;;;;2326013;54;21011;-71
2021/10/02 09:34:27;;;;;;;2.35;0.95;;;22.10;56.50;;;;;;2361085;54;20943;-67
2021/10/02 09:36:54;;;;;;;2.47;0.90;;;22.10;56.60;;;;;;2310856;54;21475;-67
2021/10/02 09:39:21;;;;;;;2.33;1.05;;;22.20;56.50;;;;;;2334631;54;21373;-71
2021/10/02 09:41:53;;;;;;;2.45;0.90;;;22.30;56.30;;;;;;2341203;55;21416;-68
2021/10/02 09:44:23;;;;;;;2.28;0.60;;;22.40;56.30;;;;;;2341900;55;22250;-66
2021/10/02 09:46:52;;;;;;;1.62;0.70;;;22.50;56.30;;;;;;2350050;53;21058;-71
2021/10/02 09:49:19;;;;;;;2.75;1.20;;;22.60;56.50;;;;;;2330875;54;20998;-67
2021/10/02 09:51:46;;;;;;;4.10;1.20;;;22.70;55.60;;;;;;2323212;54;20969;-67
2021/10/02 09:54:39;;;;;;;2.85;1.00;;;22.70;55.10;;;;;;2328323;54;20935;-66
2021/10/02 09:57:15;;;;;;;2.33;1.00;;;22.80;54.50;;;;;;2327109;54;21058;-70
2021/10/02 09:59:42;;;;;;;2.85;1.12;;;22.90;54.90;;;;;;2534705;52;20983;-67
2021/10/02 10:02:12;;;;;;;2.85;1.00;;;23.00;55.10;;;;;;2320203;54;20941;-70
2021/10/02 10:04:39;;;;;;;2.92;1.20;;;23.10;54.70;;;;;;2588191;53;20927;-66
2021/10/02 10:07:08;;;;;;;2.42;1.10;;;23.10;54.30;;;;;;2526105;53;21376;-66
2021/10/02 10:09:40;;;;;;;3.17;1.67;;;23.20;53.40;;;;;;2345225;55;20951;-69
2021/10/02 10:12:08;;;;;;;;;;;23.20;53.50;;;;;;2566306;53;20927;-73
2021/10/02 10:14:35;;;;;;;3.75;1.27;;;23.20;53.30;;;;;;2383366;53;20394;-69
2021/10/02 10:17:01;;;;;;;3.83;1.40;;;23.30;53.70;;;;;;2335165;54;21026;-68
2021/10/02 10:19:29;;;;;;;2.28;1.17;;;23.30;53.80;;;;;;2318448;54;20959;-66
2021/10/02 10:22:17;;;;;;;2.37;1.00;;;23.30;53.40;;;;;;2339946;54;20956;-69
2021/10/02 10:24:57;;;;;;;3.22;1.25;;;23.40;53.10;;;;;;2342085;54;20963;-68
2021/10/02 10:27:57;;;;;;;2.35;1.05;;;23.40;52.80;;;;;;2336065;55;21601;-69
2021/10/02 10:30:26;;;;;;;2.33;1.05;;;23.50;52.70;;;;;;2334633;54;20952;-66
2021/10/02 10:33:09;;;;;;;3.08;1.40;;;23.50;53.80;;;;;;2330729;54;21014;-71
2021/10/02 10:35:38;;;;;;;4.30;1.10;;;23.60;53.30;;;;;;2554212;53;21718;-66
2021/10/02 10:38:05;;;;;;;2.67;1.35;;;23.60;53.80;;;;;;2342192;55;20928;-69
2021/10/02 10:40:31;;;;;;;3.45;1.80;;;23.70;53.30;;;;;;2342152;54;20972;-68
2021/10/02 10:42:57;;;;;;;5.12;1.60;;;23.80;53.20;;;;;;2342597;55;20999;-66
2021/10/02 10:45:24;;;;;;;3.17;1.37;;;23.80;52.00;;;;;;2337765;54;20973;-66
2021/10/02 10:47:51;;;;;;;3.42;1.67;;;23.80;52.20;;;;;;2317366;54;20959;-66
2021/10/02 10:50:17;;;;;;;3.72;1.70;;;23.90;52.60;;;;;;2332000;54;21532;-66
2021/10/02 10:52:44;;;;;;;3.25;1.35;;;23.90;52.30;;;;;;2345428;55;20915;-69
2021/10/02 10:55:21;;;;;;;3.58;1.60;;;23.90;52.60;;;;;;2319917;54;21846;-69
2021/10/02 10:57:54;;;;;;;3.10;1.55;;;24.00;52.50;;;;;;2347904;53;20946;-66
2021/10/02 11:01:25;;;;;;;3.15;1.37;;;24.00;52.40;;;;;;2321951;54;21043;-67
2021/10/02 11:03:52;;;;;;;3.92;1.45;;;24.10;52.70;;;;;;2341354;54;20935;-67
2021/10/02 11:06:22;;;;;;;3.50;1.60;;;24.10;52.70;;;;;;2342268;55;21515;-64
2021/10/02 11:10:46;;;;;;;4.03;1.50;;;24.20;52.40;;;;;;2558722;52;20975;-66
2021/10/02 11:16:45;;;;;;;2.83;1.50;;;24.30;52.00;;;;;;2326211;54;21027;-71
2021/10/02 11:19:36;;;;;;;2.45;1.23;;;24.40;51.40;;;;;;2315924;55;20963;-66
2021/10/02 11:25:20;;;;;;;3.20;1.58;;;24.40;51.20;;;;;;2329570;54;21027;-66
2021/10/02 11:27:47;;;;;;;3.62;1.35;;;24.50;51.70;;;;;;2333866;54;20986;-71
2021/10/02 11:30:18;;;;;;;4.40;1.90;;;24.50;51.90;;;;;;2322941;54;20950;-67
2021/10/02 11:32:44;;;;;;;2.97;1.70;;;24.50;51.90;;;;;;2312045;55;21912;-68
2021/10/02 11:35:34;;;;;;;3.25;1.60;;;24.50;51.80;;;;;;2321188;54;20923;-68
2021/10/02 11:38:07;;;;;;;3.15;1.40;;;24.60;51.30;;;;;;2342004;54;21932;-70
2021/10/02 11:40:51;;;;;;;;;;;24.60;51.50;;;;;;2339304;54;21740;-75
2021/10/02 11:43:22;;;;;;;3.45;1.20;;;24.60;51.50;;;;;;2333653;54;20565;-68
2021/10/02 11:45:59;;;;;;;3.58;1.60;;;24.60;52.40;;;;;;2325897;54;21767;-72
2021/10/02 11:48:37;;;;;;;3.37;1.70;;;24.60;51.20;;;;;;2341157;55;20928;-68
2021/10/02 11:51:24;;;;;;;3.78;2.00;;;24.60;50.90;;;;;;2330982;54;21000;-69
2021/10/02 11:54:23;;;;;;;3.35;1.70;;;24.60;50.70;;;;;;2335433;54;20963;-66
2021/10/02 11:57:06;;;;;;;3.08;1.50;;;24.60;51.00;;;;;;2573786;53;22167;-74
2021/10/02 11:59:33;;;;;;;;;;;24.70;51.20;;;;;;2330026;54;20971;-75
2021/10/02 12:02:02;;;;;;;3.83;1.73;;;24.70;51.50;;;;;;2338089;54;20134;-74
2021/10/02 12:04:29;;;;;;;3.10;1.50;;;24.80;51.70;;;;;;2342298;55;20915;-73
2021/10/02 12:06:58;;;;;;;2.85;1.60;;;24.80;51.70;;;;;;2322310;54;20999;-68
2021/10/02 12:09:29;;;;;;;6.03;1.70;;;24.80;51.90;;;;;;2342082;55;20955;-69
2021/10/02 12:11:55;;;;;;;3.47;1.60;;;24.90;52.00;;;;;;2326430;54;21027;-68
2021/10/02 12:14:22;;;;;;;3.47;1.87;;;25.00;52.30;;;;;;2336896;53;21007;-69
2021/10/02 12:17:03;;;;;;;4.03;1.85;;;25.00;52.00;;;;;;2342170;54;21503;-68
2021/10/02 12:19:30;;;;;;;4.37;2.10;;;25.10;52.10;;;;;;2337618;54;21401;-68
2021/10/02 12:22:04;;;;;;;2.97;1.52;;;25.20;52.20;;;;;;2323573;54;21078;-67
2021/10/02 12:24:35;;;;;;;4.40;1.73;;;25.30;51.80;;;;;;2323653;54;21011;-69
2021/10/02 12:27:20;;;;;;;4.68;1.90;;;25.30;51.90;;;;;;2317916;54;20999;-66
2021/10/02 12:29:48;;;;;;;4.32;1.90;;;25.40;51.40;;;;;;2343717;53;20936;-66
2021/10/02 12:32:24;;;;;;;3.95;2.10;;;25.50;52.20;;;;;;2564393;53;20997;-65
2021/10/02 12:34:52;;;;;;;4.90;1.73;;;25.50;51.60;;;;;;2329698;54;20944;-67
2021/10/02 12:37:37;;;;;;;4.28;2.10;;;25.60;52.10;;;;;;2498979;53;20946;-67
2021/10/02 12:40:11;;;;;;;4.28;1.83;;;25.70;52.10;;;;;;2322411;54;21087;-70
2021/10/02 12:42:49;;;;;;;3.62;1.83;;;25.70;52.00;;;;;;2342114;55;20992;-67
2021/10/02 12:45:25;;;;;;;3.17;1.65;;;25.80;52.10;;;;;;2334485;54;20991;-71
2021/10/02 12:47:58;;;;;;;3.20;1.75;;;25.90;51.70;;;;;;2329202;54;21443;-66
2021/10/02 12:50:26;;;;;;;3.30;1.58;;;26.00;51.80;;;;;;2341526;55;20931;-66
2021/10/02 12:52:52;;;;;;;4.22;1.80;;;26.00;52.00;;;;;;2342295;54;20966;-67
2021/10/02 12:55:20;;;;;;;3.10;1.62;;;26.10;51.80;;;;;;2342057;55;22497;-69
2021/10/02 12:57:46;;;;;;;3.00;1.70;;;26.10;51.60;;;;;;2342594;55;20912;-67
2021/10/02 13:00:19;;;;;;;3.17;1.62;;;26.20;51.60;;;;;;2406979;53;20983;-67
2021/10/02 13:02:53;;;;;;;3.30;1.62;;;26.30;51.00;;;;;;2328210;54;21908;-67
2021/10/02 13:05:21;;;;;;;3.95;1.80;;;26.30;50.40;;;;;;2341438;55;20963;-68
2021/10/02 13:07:54;;;;;;;4.37;2.22;;;26.30;50.20;;;;;;2318359;54;21043;-66
2021/10/02 13:10:54;;;;;;;10.32;2.15;;;26.40;49.10;;;;;;2337924;54;21566;-71
2021/10/02 13:13:20;;;;;;;3.12;1.50;;;26.40;48.90;;;;;;2517322;53;20939;-67
2021/10/02 13:15:51;;;;;;;3.75;1.70;;;26.40;49.80;;;;;;2342756;55;20963;-67
2021/10/02 13:18:19;;;;;;;3.80;1.80;;;26.40;49.70;;;;;;2343059;55;21098;-67
2021/10/02 13:21:10;;;;;;;3.75;2.12;;;26.40;49.80;;;;;;2321232;54;20999;-67
2021/10/02 13:23:40;;;;;;;5.65;1.85;;;26.40;48.50;;;;;;2342898;55;20936;-71
2021/10/02 13:26:16;;;;;;;3.53;2.12;;;26.40;49.10;;;;;;2473631;53;21015;-67
2021/10/02 13:28:47;;;;;;;3.30;1.60;;;26.40;48.80;;;;;;2583479;53;20935;-70
2021/10/02 13:31:31;;;;;;;4.22;2.20;;;26.40;49.30;;;;;;2341865;55;21871;-67
2021/10/02 13:34:06;;;;;;;3.72;2.03;;;26.50;48.60;;;;;;2327684;54;20948;-67
2021/10/02 13:36:36;;;;;;;4.35;1.70;;;26.50;48.50;;;;;;2529961;53;20939;-66
2021/10/02 13:39:19;;;;;;;3.50;1.80;;;26.50;49.00;;;;;;2309048;54;21074;-66
2021/10/02 13:41:50;;;;;;;3.10;1.55;;;26.60;48.40;;;;;;2326930;54;21768;-66
2021/10/02 13:44:31;;;;;;;3.42;1.65;;;26.60;48.90;;;;;;2344548;55;20979;-66
2021/10/02 13:47:00;;;;;;;2.97;1.62;;;26.60;48.60;;;;;;2323846;54;20983;-67
2021/10/02 13:49:26;;;;;;;3.67;1.85;;;26.60;49.70;;;;;;2341931;55;21326;-66
2021/10/02 13:51:53;;;;;;;3.62;1.92;;;26.70;49.40;;;;;;2510789;53;20927;-68
2021/10/02 13:54:19;;;;;;;3.37;1.70;;;26.70;49.50;;;;;;2588166;53;20948;-66
2021/10/02 13:56:46;;;;;;;4.07;1.92;;;26.70;49.50;;;;;;2331536;54;22023;-67
2021/10/02 13:59:13;;;;;;;9.05;1.83;;;26.80;49.40;;;;;;2333720;54;21022;-70
2021/10/02 14:01:40;;;;;;;3.00;1.60;;;26.90;49.60;;;;;;2318518;54;20939;-68
2021/10/02 14:04:07;;;;;;;3.30;1.70;;;27.00;49.60;;;;;;2566921;53;21023;-66
2021/10/02 14:06:34;;;;;;;5.10;2.20;;;27.00;49.50;;;;;;2323814;54;20928;-71
2021/10/02 14:09:01;;;;;;;2.90;1.55;;;27.10;49.40;;;;;;2341176;54;20970;-71
2021/10/02 14:11:27;;;;;;;3.45;1.45;;;27.20;49.50;;;;;;2341605;55;20936;-71
2021/10/02 14:13:57;;;;;;;3.20;1.67;;;27.20;49.50;;;;;;2342069;54;21383;-67